createdAt,value
2022-11-09T00:00:41.793Z,1.90
2022-11-09T00:03:08.890Z,1.87
2022-11-09T00:05:35.954Z,1.97
2022-11-09T00:08:06.511Z,1.77
2022-11-09T00:10:33.676Z,2.10
2022-11-09T00:13:00.806Z,1.90
2022-11-09T00:15:27.937Z,2.00
2022-11-09T00:17:55.184Z,1.87
2022-11-09T00:20:21.858Z,2.20
2022-11-09T00:22:49.183Z,1.83
2022-11-09T00:25:16.326Z,1.87
2022-11-09T00:27:43.512Z,2.00
2022-11-09T00:30:10.819Z,1.93
2022-11-09T00:32:38.062Z,2.43
2022-11-09T00:35:05.205Z,1.97
2022-11-09T00:37:32.377Z,2.50
2022-11-09T00:39:59.509Z,1.90
2022-11-09T00:42:26.553Z,1.90
2022-11-09T00:44:53.264Z,2.00
2022-11-09T00:47:19.950Z,2.20
2022-11-09T00:49:47.093Z,2.30
2022-11-09T00:52:14.229Z,1.97
2022-11-09T00:54:41.285Z,1.90
2022-11-09T00:57:08.358Z,2.10
2022-11-09T00:59:35.398Z,1.97
2022-11-09T01:02:02.491Z,2.00
2022-11-09T01:04:29.578Z,1.97
2022-11-09T01:06:56.706Z,1.93
2022-11-09T01:09:23.499Z,1.97
2022-11-09T01:11:50.415Z,1.90
2022-11-09T01:14:17.457Z,2.03
2022-11-09T01:16:44.130Z,2.03
2022-11-09T01:19:11.711Z,1.87
2022-11-09T01:21:38.789Z,1.83
2022-11-09T01:24:05.903Z,1.90
2022-11-09T01:26:33.778Z,1.80
2022-11-09T01:29:03.486Z,2.00
2022-11-09T01:31:30.590Z,1.67
2022-11-09T01:33:57.649Z,1.90
2022-11-09T01:36:25.128Z,2.00
2022-11-09T01:38:52.308Z,1.90
2022-11-09T01:41:22.289Z,1.93
2022-11-09T01:44:04.015Z,1.70
2022-11-09T01:46:55.057Z,2.00
2022-11-09T01:49:43.448Z,1.70
2022-11-09T01:52:19.821Z,1.83
2022-11-09T01:54:50.466Z,2.07
2022-11-09T01:57:26.036Z,1.63
2022-11-09T01:59:57.795Z,1.90
2022-11-09T02:02:24.764Z,1.90
2022-11-09T02:05:01.045Z,1.53
2022-11-09T02:07:28.293Z,1.60
2022-11-09T02:10:18.923Z,1.63
2022-11-09T02:12:46.457Z,1.60
2022-11-09T02:15:13.632Z,2.03
2022-11-09T02:17:41.978Z,1.80
2022-11-09T02:20:13.454Z,1.80
2022-11-09T02:22:41.614Z,1.93
2022-11-09T02:25:09.886Z,1.70
2022-11-09T02:27:37.734Z,1.80
2022-11-09T02:30:05.222Z,1.80
2022-11-09T02:32:32.300Z,1.90
2022-11-09T02:34:58.939Z,1.80
2022-11-09T02:37:35.435Z,1.80
2022-11-09T02:40:09.596Z,1.90
2022-11-09T02:42:36.663Z,1.80
2022-11-09T02:45:03.793Z,1.73
2022-11-09T02:47:30.485Z,2.00
2022-11-09T02:49:57.965Z,1.70
2022-11-09T02:52:24.728Z,1.70
2022-11-09T02:54:51.822Z,1.90
2022-11-09T02:57:18.513Z,1.70
2022-11-09T02:59:45.153Z,1.57
2022-11-09T03:02:12.256Z,1.60
2022-11-09T03:04:38.936Z,1.70
2022-11-09T03:07:06.178Z,1.90
2022-11-09T03:09:33.280Z,1.90
2022-11-09T03:12:20.318Z,2.23
2022-11-09T03:14:47.373Z,1.60
2022-11-09T03:17:14.453Z,1.97
2022-11-09T03:19:41.496Z,2.10
2022-11-09T03:22:08.594Z,1.73
2022-11-09T03:24:35.236Z,2.00
2022-11-09T03:27:01.964Z,1.90
2022-11-09T03:29:29.026Z,1.97
2022-11-09T03:31:56.349Z,1.80
2022-11-09T03:34:23.421Z,1.83
2022-11-09T03:36:50.092Z,1.90
2022-11-09T03:39:16.799Z,1.60
2022-11-09T03:41:43.524Z,1.73
2022-11-09T03:44:10.555Z,1.73
2022-11-09T03:46:37.627Z,1.70
2022-11-09T03:49:04.424Z,1.63
2022-11-09T03:51:31.128Z,1.80
2022-11-09T03:53:58.184Z,1.60
2022-11-09T03:56:24.894Z,1.80
2022-11-09T03:58:52.014Z,1.70
2022-11-09T04:01:18.786Z,1.60
2022-11-09T04:03:45.934Z,1.70
2022-11-09T04:06:12.984Z,1.97
2022-11-09T04:08:40.028Z,1.77
2022-11-09T04:11:07.165Z,2.07
2022-11-09T04:13:34.224Z,1.90
2022-11-09T04:16:00.910Z,1.80
2022-11-09T04:18:27.554Z,1.80
2022-11-09T04:20:54.265Z,1.90
2022-11-09T04:23:21.709Z,1.90
2022-11-09T04:25:49.022Z,1.77
2022-11-09T04:28:15.662Z,1.97
2022-11-09T04:30:43.112Z,1.80
2022-11-09T04:33:10.080Z,1.53
2022-11-09T04:35:36.799Z,2.33
2022-11-09T04:38:06.755Z,1.63
2022-11-09T04:40:35.291Z,1.60
2022-11-09T04:43:04.501Z,1.50
2022-11-09T04:45:33.809Z,2.00
2022-11-09T04:48:02.249Z,1.77
2022-11-09T04:50:29.772Z,1.90
2022-11-09T04:53:08.187Z,1.83
2022-11-09T04:55:35.394Z,1.60
2022-11-09T04:58:02.564Z,1.70
2022-11-09T05:00:29.438Z,1.90
2022-11-09T05:03:00.034Z,1.97
2022-11-09T05:05:27.130Z,1.83
2022-11-09T05:07:53.849Z,2.47
2022-11-09T05:10:20.973Z,1.90
2022-11-09T05:12:48.086Z,2.00
2022-11-09T05:15:15.246Z,2.47
2022-11-09T05:17:41.893Z,2.10
2022-11-09T05:20:08.991Z,1.97
2022-11-09T05:22:58.615Z,2.20
2022-11-09T05:25:25.794Z,2.53
2022-11-09T05:27:52.924Z,2.50
2022-11-09T05:30:20.204Z,2.90
2022-11-09T05:32:47.053Z,2.27
2022-11-09T05:35:14.219Z,2.57
2022-11-09T05:37:41.301Z,3.27
2022-11-09T05:40:09.286Z,2.90
2022-11-09T05:42:40.305Z,2.47
2022-11-09T05:45:43.344Z,2.60
2022-11-09T05:47:59.374Z,2.37
2022-11-09T05:50:26.436Z,2.33
2022-11-09T05:52:54.439Z,2.37
2022-11-09T05:55:21.496Z,2.47
2022-11-09T05:57:48.611Z,2.40
2022-11-09T06:00:15.950Z,2.57
2022-11-09T06:02:42.991Z,2.10
2022-11-09T06:05:10.119Z,2.57
2022-11-09T06:07:37.241Z,3.33
2022-11-09T06:10:05.138Z,2.60
2022-11-09T06:12:32.198Z,2.93
2022-11-09T06:14:58.904Z,3.50
2022-11-09T06:17:26.036Z,3.80
2022-11-09T06:19:52.819Z,3.33
2022-11-09T06:22:19.708Z,3.63
2022-11-09T06:24:46.378Z,3.37
2022-11-09T06:27:13.024Z,3.17
2022-11-09T06:29:40.190Z,3.20
2022-11-09T06:32:06.955Z,3.20
2022-11-09T06:34:34.011Z,2.50
2022-11-09T06:37:00.679Z,2.70
2022-11-09T06:39:27.729Z,2.60
2022-11-09T06:41:54.782Z,2.50
2022-11-09T06:44:21.858Z,2.70
2022-11-09T06:46:48.949Z,2.80
2022-11-09T06:49:15.720Z,3.33
2022-11-09T06:51:42.817Z,2.60
2022-11-09T06:54:09.861Z,4.73
2022-11-09T06:56:36.949Z,3.43
2022-11-09T06:59:04.070Z,3.30
2022-11-09T07:01:49.130Z,3.27
2022-11-09T07:04:15.878Z,2.90
2022-11-09T07:06:43.002Z,3.00
2022-11-09T07:09:11.020Z,3.07
2022-11-09T07:11:38.064Z,2.30
2022-11-09T07:14:04.860Z,2.37
2022-11-09T07:16:32.018Z,2.50
2022-11-09T07:18:58.752Z,2.50
2022-11-09T07:21:25.540Z,2.43
2022-11-09T07:23:52.636Z,2.40
2022-11-09T07:26:21.745Z,2.70
2022-11-09T07:28:48.420Z,2.63
2022-11-09T07:31:15.109Z,2.70
2022-11-09T07:33:41.730Z,2.50
2022-11-09T07:36:09.466Z,2.67
2022-11-09T07:38:36.118Z,2.70
2022-11-09T07:41:03.303Z,2.80
2022-11-09T07:43:30.432Z,3.07
2022-11-09T07:45:57.583Z,2.60
2022-11-09T07:48:24.498Z,2.77
2022-11-09T07:50:51.629Z,3.13
2022-11-09T07:53:18.539Z,2.93
2022-11-09T07:55:45.518Z,3.00
2022-11-09T07:58:14.458Z,3.23
2022-11-09T08:00:42.436Z,2.80
2022-11-09T08:03:09.885Z,3.20
2022-11-09T08:05:37.289Z,2.90
2022-11-09T08:08:06.584Z,3.10
2022-11-09T08:10:35.171Z,2.53
2022-11-09T08:13:05.401Z,2.87
2022-11-09T08:15:33.639Z,2.60
2022-11-09T08:18:06.337Z,2.50
2022-11-09T08:20:34.122Z,2.43
2022-11-09T08:23:05.031Z,2.20
2022-11-09T08:25:35.212Z,2.47
2022-11-09T08:28:03.355Z,2.30
2022-11-09T08:30:30.450Z,2.10
2022-11-09T08:32:59.311Z,2.10
2022-11-09T08:35:26.977Z,2.20
2022-11-09T08:37:54.510Z,2.07
2022-11-09T08:40:24.213Z,2.10
2022-11-09T08:42:51.822Z,1.87
2022-11-09T08:45:19.178Z,2.00
2022-11-09T08:47:46.837Z,2.40
2022-11-09T08:50:15.805Z,2.00
2022-11-09T08:52:42.484Z,1.80
2022-11-09T08:55:09.701Z,2.37
2022-11-09T08:57:36.470Z,2.20
2022-11-09T09:00:04.813Z,2.30
2022-11-09T09:02:31.880Z,2.70
2022-11-09T09:04:58.510Z,2.00
2022-11-09T09:07:25.487Z,2.33
2022-11-09T09:09:52.620Z,2.30
2022-11-09T09:12:19.409Z,2.00
2022-11-09T09:14:46.680Z,1.80
2022-11-09T09:17:13.459Z,1.73
2022-11-09T09:19:40.590Z,1.70
2022-11-09T09:22:07.401Z,1.73
2022-11-09T09:24:35.233Z,1.80
2022-11-09T09:27:02.813Z,2.00
2022-11-09T09:29:29.862Z,1.90
2022-11-09T09:31:56.504Z,1.60
2022-11-09T09:34:23.199Z,1.70
2022-11-09T09:36:53.452Z,1.50
2022-11-09T09:39:20.605Z,1.70
2022-11-09T09:42:02.141Z,1.40
2022-11-09T09:44:43.469Z,1.63
2022-11-09T09:47:18.971Z,1.50
2022-11-09T09:50:02.922Z,1.73
2022-11-09T09:52:30.018Z,1.33
2022-11-09T09:55:08.939Z,1.77
2022-11-09T09:57:41.702Z,1.60
2022-11-09T10:00:21.183Z,1.50
2022-11-09T10:02:49.458Z,1.50
2022-11-09T10:05:17.349Z,1.50
2022-11-09T10:07:44.379Z,1.77
2022-11-09T10:10:38.542Z,1.40
2022-11-09T10:13:29.573Z,2.10
2022-11-09T10:16:04.877Z,2.10
2022-11-09T10:18:40.557Z,2.40
2022-11-09T10:21:17.594Z,2.13
2022-11-09T10:24:03.025Z,2.27
2022-11-09T10:26:48.563Z,2.07
2022-11-09T10:29:17.077Z,1.50
2022-11-09T10:31:45.768Z,1.47
2022-11-09T10:34:39.403Z,1.70
2022-11-09T10:37:43.207Z,1.57
2022-11-09T10:40:19.269Z,1.80
2022-11-09T10:43:00.634Z,1.80
2022-11-09T10:45:29.452Z,2.13
2022-11-09T10:47:56.235Z,1.70
2022-11-09T10:50:28.932Z,1.90
2022-11-09T10:53:10.230Z,2.07
2022-11-09T10:55:37.300Z,1.60
2022-11-09T10:58:21.946Z,1.43
2022-11-09T11:01:01.284Z,1.37
2022-11-09T11:03:29.652Z,1.83
2022-11-09T11:06:01.705Z,1.60
2022-11-09T11:08:28.738Z,1.37
2022-11-09T11:11:32.184Z,1.60
2022-11-09T11:14:18.335Z,1.30
2022-11-09T11:16:57.215Z,1.50
2022-11-09T11:19:35.922Z,1.57
2022-11-09T11:22:08.591Z,1.60
2022-11-09T11:24:54.687Z,1.67
2022-11-09T11:27:24.353Z,1.67
2022-11-09T11:29:59.811Z,1.70
2022-11-09T11:32:26.684Z,1.70
2022-11-09T11:35:00.178Z,1.60
2022-11-09T11:37:45.383Z,1.50
2022-11-09T11:40:17.788Z,1.77
2022-11-09T11:42:53.203Z,1.80
2022-11-09T11:45:55.021Z,1.80
2022-11-09T11:48:47.893Z,1.70
2022-11-09T11:51:41.716Z,1.90
2022-11-09T11:54:34.697Z,1.70
2022-11-09T11:57:21.533Z,2.10
2022-11-09T11:59:51.028Z,1.63
2022-11-09T12:02:45.505Z,1.90
2022-11-09T12:06:00.645Z,1.80
2022-11-09T12:08:42.407Z,1.80
2022-11-09T12:11:10.255Z,1.50
2022-11-09T12:13:50.611Z,2.23
2022-11-09T12:16:35.729Z,1.83
2022-11-09T12:19:35.347Z,2.07
2022-11-09T12:22:02.979Z,1.80
2022-11-09T12:25:00.937Z,2.27
2022-11-09T12:27:32.871Z,2.30
2022-11-09T12:30:14.762Z,1.97
2022-11-09T12:32:50.781Z,1.60
2022-11-09T12:35:26.189Z,2.10
2022-11-09T12:38:05.298Z,1.90
2022-11-09T12:40:38.436Z,2.10
2022-11-09T12:43:15.633Z,3.60
2022-11-09T12:45:42.938Z,2.00
2022-11-09T12:48:30.833Z,2.00
2022-11-09T12:50:59.903Z,1.90
2022-11-09T12:53:32.318Z,1.80
2022-11-09T12:56:04.873Z,1.90
2022-11-09T12:58:34.808Z,1.73
2022-11-09T13:01:04.621Z,1.90
2022-11-09T13:03:34.057Z,1.60
2022-11-09T13:06:19.992Z,1.60
2022-11-09T13:09:06.615Z,1.90
2022-11-09T13:11:33.701Z,1.70
2022-11-09T13:14:22.039Z,2.00
2022-11-09T13:16:50.272Z,1.60
2022-11-09T13:19:50.302Z,1.50
2022-11-09T13:22:19.591Z,1.53
2022-11-09T13:24:46.638Z,1.47
2022-11-09T13:27:33.279Z,1.57
2022-11-09T13:30:01.260Z,2.00
2022-11-09T13:32:33.468Z,1.90
2022-11-09T13:35:02.912Z,1.80
2022-11-09T13:37:41.480Z,2.20
2022-11-09T13:40:32.778Z,1.60
2022-11-09T13:43:26.945Z,1.70
2022-11-09T13:45:53.642Z,1.60
2022-11-09T13:48:43.455Z,1.70
2022-11-09T13:51:26.931Z,1.90
2022-11-09T13:54:03.408Z,1.50
2022-11-09T13:56:30.109Z,1.80
2022-11-09T13:59:15.330Z,1.90
2022-11-09T14:01:54.190Z,1.80
2022-11-09T14:04:43.656Z,1.93
2022-11-09T14:07:22.717Z,1.60
2022-11-09T14:10:07.658Z,1.63
2022-11-09T14:12:48.406Z,1.83
2022-11-09T14:15:17.949Z,1.93
2022-11-09T14:18:02.753Z,1.57
2022-11-09T14:20:50.828Z,1.60
2022-11-09T14:23:19.974Z,1.90
2022-11-09T14:25:48.997Z,1.93
2022-11-09T14:28:32.766Z,1.80
2022-11-09T14:30:59.889Z,2.03
2022-11-09T14:33:28.796Z,1.73
2022-11-09T14:35:58.003Z,1.57
2022-11-09T14:38:25.114Z,1.70
2022-11-09T14:40:55.291Z,1.67
2022-11-09T14:43:44.284Z,1.70
2022-11-09T14:46:20.346Z,1.37
2022-11-09T14:49:01.230Z,2.27
2022-11-09T14:51:38.086Z,2.10
2022-11-09T14:54:14.814Z,1.73
2022-11-09T14:56:43.159Z,1.47
2022-11-09T14:59:15.101Z,2.13
2022-11-09T15:02:07.607Z,1.60
2022-11-09T15:04:58.342Z,1.50
2022-11-09T15:07:29.260Z,1.60
2022-11-09T15:09:59.299Z,2.20
2022-11-09T15:12:26.525Z,1.77
2022-11-09T15:15:02.733Z,1.60
2022-11-09T15:17:37.946Z,1.50
2022-11-09T15:20:27.070Z,1.53
2022-11-09T15:22:54.189Z,1.53
2022-11-09T15:25:31.346Z,1.90
2022-11-09T15:28:13.441Z,1.67
2022-11-09T15:30:54.269Z,1.77
2022-11-09T15:33:39.103Z,1.50
2022-11-09T15:36:26.778Z,1.50
2022-11-09T15:39:25.698Z,1.50
2022-11-09T15:41:52.403Z,1.93
2022-11-09T15:44:20.608Z,1.87
2022-11-09T15:46:50.880Z,1.50
2022-11-09T15:49:20.574Z,1.60
2022-11-09T15:51:48.980Z,1.57
2022-11-09T15:54:16.093Z,1.90
2022-11-09T15:56:43.560Z,1.80
2022-11-09T15:59:19.469Z,1.50
2022-11-09T16:01:46.598Z,2.30
2022-11-09T16:04:13.487Z,2.03
2022-11-09T16:06:46.155Z,2.10
2022-11-09T16:09:13.277Z,2.03
2022-11-09T16:11:39.929Z,2.73
2022-11-09T16:14:07.014Z,2.40
2022-11-09T16:16:34.155Z,2.17
2022-11-09T16:19:01.049Z,2.80
2022-11-09T16:21:27.725Z,4.00
2022-11-09T16:23:58.450Z,3.60
2022-11-09T16:26:25.724Z,3.70
2022-11-09T16:28:54.450Z,3.43
2022-11-09T16:31:40.968Z,8.37
2022-11-09T16:34:08.703Z,3.90
2022-11-09T16:36:37.274Z,3.50
2022-11-09T16:39:09.229Z,4.07
2022-11-09T16:41:40.119Z,2.83
2022-11-09T16:44:07.284Z,3.20
2022-11-09T16:46:34.460Z,3.00
2022-11-09T16:49:02.540Z,2.80
2022-11-09T16:51:29.846Z,2.33
2022-11-09T16:53:56.913Z,2.83
2022-11-09T16:56:23.951Z,1.90
2022-11-09T16:58:51.076Z,2.50
2022-11-09T17:01:23.012Z,2.47
2022-11-09T17:03:50.455Z,8.17
2022-11-09T17:06:17.167Z,2.90
2022-11-09T17:08:44.294Z,2.43
2022-11-09T17:11:14.793Z,2.30
2022-11-09T17:13:55.372Z,3.50
2022-11-09T17:16:22.470Z,4.67
2022-11-09T17:18:49.554Z,2.50
2022-11-09T17:21:16.661Z,2.40
2022-11-09T17:23:44.373Z,2.50
2022-11-09T17:26:11.563Z,2.10
2022-11-09T17:28:42.680Z,2.00
2022-11-09T17:31:19.926Z,2.20
2022-11-09T17:33:46.670Z,2.80
2022-11-09T17:36:16.088Z,2.40
2022-11-09T17:38:42.822Z,2.80
2022-11-09T17:41:18.461Z,2.50
2022-11-09T17:43:45.657Z,2.80
2022-11-09T17:46:21.145Z,4.00
2022-11-09T17:48:49.611Z,2.87
2022-11-09T17:51:18.874Z,2.80
2022-11-09T17:53:45.759Z,2.70
2022-11-09T17:56:12.852Z,2.30
2022-11-09T17:58:41.135Z,2.27
2022-11-09T18:01:10.474Z,2.97
2022-11-09T18:03:38.780Z,2.50
2022-11-09T18:06:15.046Z,2.40
2022-11-09T18:08:43.597Z,2.87
2022-11-09T18:11:10.948Z,2.50
2022-11-09T18:13:38.497Z,2.67
2022-11-09T18:16:17.875Z,2.60
2022-11-09T18:18:45.310Z,2.47
2022-11-09T18:21:15.530Z,2.50
2022-11-09T18:23:44.176Z,3.00
2022-11-09T18:26:11.510Z,2.60
2022-11-09T18:28:38.786Z,2.70
2022-11-09T18:31:08.036Z,2.70
2022-11-09T18:33:35.155Z,2.60
2022-11-09T18:36:09.006Z,2.73
2022-11-09T18:38:36.404Z,2.40
2022-11-09T18:41:29.752Z,2.40
2022-11-09T18:43:58.347Z,2.40
2022-11-09T18:46:26.876Z,2.87
2022-11-09T18:48:54.342Z,2.30
2022-11-09T18:51:21.419Z,2.93
2022-11-09T18:53:49.406Z,2.70
2022-11-09T18:56:23.285Z,2.70
2022-11-09T18:58:54.818Z,2.43
2022-11-09T19:01:23.499Z,2.77
2022-11-09T19:03:54.954Z,2.80
2022-11-09T19:06:24.878Z,2.97
2022-11-09T19:11:47.665Z,3.73
2022-11-09T19:14:14.337Z,2.87
2022-11-09T19:16:41.401Z,2.60
2022-11-09T19:19:13.029Z,3.70
2022-11-09T19:21:51.248Z,3.20
2022-11-09T19:24:19.871Z,3.40
2022-11-09T19:26:47.398Z,2.77
2022-11-09T19:29:15.156Z,2.63
2022-11-09T19:31:43.303Z,3.63
2022-11-09T19:34:11.534Z,3.13
2022-11-09T19:36:38.608Z,3.07
2022-11-09T19:39:05.404Z,3.20
2022-11-09T19:41:32.181Z,3.63
2022-11-09T19:43:59.428Z,3.37
2022-11-09T19:46:27.714Z,3.70
2022-11-09T19:48:54.429Z,2.90
2022-11-09T19:51:21.579Z,3.13
2022-11-09T19:53:50.210Z,2.90
2022-11-09T19:56:18.203Z,4.60
2022-11-09T19:58:53.407Z,4.00
2022-11-09T20:01:20.246Z,4.10
2022-11-09T20:03:55.162Z,3.90
2022-11-09T20:06:23.252Z,3.57
2022-11-09T20:08:51.256Z,3.50
2022-11-09T20:11:39.936Z,3.33
2022-11-09T20:14:07.794Z,3.20
2022-11-09T20:16:35.631Z,3.30
2022-11-09T20:19:03.835Z,3.37
2022-11-09T20:21:30.976Z,3.00
2022-11-09T20:23:58.253Z,3.37
2022-11-09T20:26:24.901Z,3.90
2022-11-09T20:28:54.876Z,3.13
2022-11-09T20:31:22.677Z,3.00
2022-11-09T20:33:50.207Z,3.10
2022-11-09T20:36:18.728Z,3.33
2022-11-09T20:38:45.916Z,3.50
2022-11-09T20:41:12.765Z,3.47
2022-11-09T20:43:39.489Z,3.33
2022-11-09T20:46:08.124Z,3.57
2022-11-09T20:51:23.259Z,2.70
2022-11-09T20:53:51.170Z,3.30
2022-11-09T20:56:19.089Z,3.63
2022-11-09T20:58:46.206Z,3.60
2022-11-09T21:01:22.075Z,3.43
2022-11-09T21:03:50.788Z,3.13
2022-11-09T21:06:17.856Z,3.17
2022-11-09T21:08:52.400Z,3.27
2022-11-09T21:11:19.765Z,3.40
2022-11-09T21:13:50.914Z,3.43
2022-11-09T21:16:19.549Z,2.93
2022-11-09T21:18:48.432Z,3.63
2022-11-09T21:21:20.519Z,3.50
2022-11-09T21:24:06.186Z,3.57
2022-11-09T21:26:52.120Z,3.20
2022-11-09T21:29:39.519Z,3.27
2022-11-09T21:32:07.330Z,3.47
2022-11-09T21:34:36.981Z,3.30
2022-11-09T21:37:04.505Z,3.13
2022-11-09T21:39:31.589Z,3.20
2022-11-09T21:41:58.860Z,2.80
2022-11-09T21:44:28.345Z,3.00
2022-11-09T21:46:55.152Z,2.40
2022-11-09T21:49:22.218Z,2.70
2022-11-09T21:51:49.442Z,3.70
2022-11-09T21:54:16.390Z,2.33
2022-11-09T21:56:43.203Z,2.30
2022-11-09T21:59:10.257Z,2.73
2022-11-09T22:01:36.989Z,2.37
2022-11-09T22:04:03.790Z,2.57
2022-11-09T22:06:30.970Z,2.60
2022-11-09T22:08:58.043Z,2.93
2022-11-09T22:11:44.961Z,2.50
2022-11-09T22:14:36.005Z,4.27
2022-11-09T22:17:04.082Z,2.40
2022-11-09T22:19:49.959Z,2.67
2022-11-09T22:22:17.109Z,2.80
2022-11-09T22:24:43.775Z,2.40
2022-11-09T22:27:10.957Z,2.10
2022-11-09T22:29:37.766Z,2.30
2022-11-09T22:32:05.173Z,2.50
2022-11-09T22:34:32.034Z,2.30
2022-11-09T22:36:59.108Z,2.27
2022-11-09T22:39:26.135Z,2.40
2022-11-09T22:41:53.198Z,2.30
2022-11-09T22:44:20.274Z,2.80
2022-11-09T22:46:48.601Z,2.33
2022-11-09T22:49:15.476Z,3.37
2022-11-09T22:51:42.516Z,2.20
2022-11-09T22:54:09.620Z,2.30
2022-11-09T22:56:36.707Z,2.53
2022-11-09T22:59:03.337Z,2.63
2022-11-09T23:01:30.482Z,2.23
2022-11-09T23:03:57.237Z,2.57
2022-11-09T23:06:24.221Z,2.20
2022-11-09T23:08:51.450Z,2.20
2022-11-09T23:11:21.304Z,2.30
2022-11-09T23:13:55.102Z,2.50
2022-11-09T23:16:23.045Z,3.23
2022-11-09T23:18:55.496Z,2.40
2022-11-09T23:21:37.020Z,2.50
2022-11-09T23:24:06.350Z,2.77
2022-11-09T23:26:33.838Z,4.63
2022-11-09T23:29:00.786Z,2.37
2022-11-09T23:31:27.941Z,2.87
2022-11-09T23:33:58.235Z,3.10
2022-11-09T23:36:26.461Z,2.70
2022-11-09T23:38:53.498Z,6.37
2022-11-09T23:41:20.585Z,2.90
2022-11-09T23:43:49.614Z,2.63
2022-11-09T23:46:17.701Z,3.13
2022-11-09T23:48:45.012Z,2.50
2022-11-09T23:51:11.959Z,2.30
2022-11-09T23:53:39.442Z,2.30
2022-11-09T23:56:11.740Z,2.53
2022-11-09T23:58:39.033Z,2.73
